createdAt,value
2022-09-11T00:00:59.792Z,2.17
2022-09-11T00:03:32.606Z,1.95
2022-09-11T00:06:10.601Z,2.00
2022-09-11T00:08:43.717Z,1.70
2022-09-11T00:11:18.607Z,2.10
2022-09-11T00:13:54.262Z,2.47
2022-09-11T00:16:30.226Z,2.13
2022-09-11T00:19:06.157Z,2.38
2022-09-11T00:21:40.334Z,1.60
2022-09-11T00:24:13.244Z,2.83
2022-09-11T00:29:20.779Z,3.17
2022-09-11T00:31:53.855Z,2.92
2022-09-11T00:37:00.338Z,3.75
2022-09-11T00:39:34.778Z,2.60
2022-09-11T00:42:08.155Z,2.22
2022-09-11T00:45:03.139Z,3.10
2022-09-11T00:47:37.265Z,2.65
2022-09-11T00:50:13.557Z,2.88
2022-09-11T00:52:53.248Z,2.38
2022-09-11T00:55:28.784Z,3.55
2022-09-11T00:58:05.920Z,2.33
2022-09-11T01:00:40.467Z,2.97
2022-09-11T01:03:13.550Z,2.78
2022-09-11T01:05:48.286Z,2.08
2022-09-11T01:08:23.239Z,2.45
2022-09-11T01:11:12.882Z,3.63
2022-09-11T01:13:52.767Z,4.00
2022-09-11T01:16:34.750Z,2.67
2022-09-11T01:19:20.120Z,2.92
2022-09-11T01:22:08.402Z,2.35
2022-09-11T01:25:06.952Z,2.40
2022-09-11T01:27:50.282Z,3.25
2022-09-11T01:33:08.615Z,3.05
2022-09-11T01:35:51.043Z,3.33
2022-09-11T01:38:31.672Z,2.43
2022-09-11T01:41:09.863Z,2.45
2022-09-11T01:43:51.597Z,4.13
2022-09-11T01:46:27.813Z,2.78
2022-09-11T01:49:06.670Z,3.40
2022-09-11T01:51:41.481Z,3.65
2022-09-11T01:54:18.814Z,3.75
2022-09-11T01:56:56.469Z,3.13
2022-09-11T01:59:37.046Z,3.22
2022-09-11T02:02:15.031Z,3.03
2022-09-11T02:04:53.103Z,3.83
2022-09-11T02:07:32.131Z,3.88
2022-09-11T02:10:10.396Z,3.40
2022-09-11T02:12:47.549Z,3.65
2022-09-11T02:15:25.358Z,3.83
2022-09-11T02:18:03.341Z,3.22
2022-09-11T02:20:38.483Z,2.75
2022-09-11T02:23:11.196Z,2.83
2022-09-11T02:25:44.073Z,3.67
2022-09-11T02:28:17.758Z,4.38
2022-09-11T02:30:52.000Z,3.83
2022-09-11T02:33:33.119Z,2.97
2022-09-11T02:36:20.242Z,3.22
2022-09-11T02:39:10.803Z,2.60
2022-09-11T02:41:55.276Z,3.13
2022-09-11T02:44:35.442Z,4.05
2022-09-11T02:47:20.530Z,2.90
2022-09-11T02:50:07.077Z,3.55
2022-09-11T02:52:50.170Z,3.13
2022-09-11T02:55:32.910Z,3.72
2022-09-11T02:58:10.969Z,3.78
2022-09-11T03:00:48.319Z,4.35
2022-09-11T03:03:22.415Z,4.05
2022-09-11T03:05:55.373Z,4.00
2022-09-11T03:08:31.491Z,4.13
2022-09-11T03:11:04.753Z,3.88
2022-09-11T03:13:38.090Z,3.63
2022-09-11T03:16:12.234Z,4.55
2022-09-11T03:18:46.375Z,3.58
2022-09-11T03:21:20.285Z,4.35
2022-09-11T03:23:52.971Z,6.07
2022-09-11T03:26:26.256Z,3.50
2022-09-11T03:28:59.066Z,3.80
2022-09-11T03:31:31.803Z,4.10
2022-09-11T03:34:06.708Z,3.47
2022-09-11T03:36:40.194Z,3.60
2022-09-11T03:39:13.346Z,3.47
2022-09-11T03:41:46.021Z,3.38
2022-09-11T03:44:18.967Z,3.65
2022-09-11T03:46:52.697Z,3.85
2022-09-11T03:49:26.979Z,4.03
2022-09-11T03:52:01.078Z,4.85
2022-09-11T03:54:34.389Z,4.28
2022-09-11T03:57:09.631Z,3.60
2022-09-11T03:59:44.010Z,3.63
2022-09-11T04:02:16.801Z,3.92
2022-09-11T04:07:24.419Z,4.88
2022-09-11T04:09:57.230Z,4.30
2022-09-11T04:12:30.052Z,3.55
2022-09-11T04:15:02.846Z,3.70
2022-09-11T04:17:37.523Z,4.28
2022-09-11T04:22:45.257Z,6.22
2022-09-11T04:25:18.888Z,3.50
2022-09-11T04:27:51.571Z,4.13
2022-09-11T04:30:24.295Z,4.72
2022-09-11T04:32:58.190Z,4.13
2022-09-11T04:35:32.742Z,6.25
2022-09-11T04:38:06.827Z,3.65
2022-09-11T04:40:41.004Z,4.63
2022-09-11T04:43:13.652Z,5.88
2022-09-11T04:45:46.476Z,4.45
2022-09-11T04:51:02.663Z,3.50
2022-09-11T04:53:36.136Z,4.45
2022-09-11T04:56:12.338Z,3.28
2022-09-11T04:58:55.081Z,4.03
2022-09-11T05:01:32.464Z,3.75
2022-09-11T05:04:05.285Z,3.88
2022-09-11T05:06:40.062Z,4.63
2022-09-11T05:09:18.365Z,3.10
2022-09-11T05:11:52.890Z,3.35
2022-09-11T05:14:28.143Z,3.55
2022-09-11T05:17:02.293Z,4.32
2022-09-11T05:19:36.576Z,3.22
2022-09-11T05:22:10.810Z,5.97
2022-09-11T05:24:47.800Z,3.50
2022-09-11T05:27:20.588Z,3.95
2022-09-11T05:29:53.310Z,4.82
2022-09-11T05:32:26.126Z,4.38
2022-09-11T05:34:59.487Z,3.97
2022-09-11T05:37:33.711Z,3.65
2022-09-11T05:40:07.976Z,3.80
2022-09-11T05:42:40.838Z,4.90
2022-09-11T05:47:46.630Z,4.50
2022-09-11T05:50:21.586Z,3.60
2022-09-11T05:52:56.310Z,4.07
2022-09-11T05:55:29.374Z,3.97
2022-09-11T05:58:03.007Z,3.50
2022-09-11T06:00:35.631Z,4.45
2022-09-11T06:03:10.606Z,3.35
2022-09-11T06:05:46.391Z,5.13
2022-09-11T06:08:20.429Z,4.30
2022-09-11T06:10:53.062Z,4.78
2022-09-11T06:13:26.583Z,4.32
2022-09-11T06:15:59.300Z,4.25
2022-09-11T06:18:33.886Z,3.65
2022-09-11T06:21:11.832Z,3.80
2022-09-11T06:23:57.002Z,3.63
2022-09-11T06:26:30.432Z,3.50
2022-09-11T06:34:09.621Z,3.35
2022-09-11T06:36:45.165Z,3.15
2022-09-11T06:39:22.816Z,3.50
2022-09-11T06:41:56.258Z,3.33
2022-09-11T06:44:35.463Z,2.90
2022-09-11T06:47:09.071Z,4.63
2022-09-11T06:49:42.403Z,3.00
2022-09-11T06:52:35.939Z,3.88
2022-09-11T06:55:37.000Z,3.97
2022-09-11T06:58:13.754Z,3.00
2022-09-11T07:00:47.637Z,2.63
2022-09-11T07:03:20.552Z,2.47
2022-09-11T07:05:56.045Z,2.72
2022-09-11T07:08:29.762Z,3.13
2022-09-11T07:11:05.569Z,7.05
2022-09-11T07:13:40.609Z,8.13
2022-09-11T07:16:15.116Z,6.63
2022-09-11T07:18:49.378Z,8.23
2022-09-11T07:21:28.527Z,11.13
2022-09-11T07:24:05.159Z,9.00
2022-09-11T07:26:46.532Z,8.13
2022-09-11T07:29:25.049Z,9.75
2022-09-11T07:31:58.577Z,7.97
2022-09-11T07:34:33.251Z,7.65
2022-09-11T07:37:10.382Z,7.50
2022-09-11T07:39:44.530Z,7.97
2022-09-11T07:42:25.529Z,9.70
2022-09-11T07:44:58.165Z,7.57
2022-09-11T07:47:34.676Z,8.02
2022-09-11T07:50:08.829Z,9.27
2022-09-11T07:52:42.513Z,7.70
2022-09-11T07:55:15.246Z,5.25
2022-09-11T07:57:52.597Z,4.30
2022-09-11T08:00:26.051Z,4.95
2022-09-11T08:03:15.277Z,3.90
2022-09-11T08:05:47.922Z,4.63
2022-09-11T08:08:21.222Z,2.97
2022-09-11T08:10:55.512Z,4.43
2022-09-11T08:13:30.112Z,3.45
2022-09-11T08:16:04.215Z,3.38
2022-09-11T08:18:37.241Z,3.78
2022-09-11T08:21:13.121Z,2.65
2022-09-11T08:23:46.641Z,2.75
2022-09-11T08:26:22.008Z,2.47
2022-09-11T08:28:59.871Z,4.03
2022-09-11T08:31:36.117Z,2.40
2022-09-11T08:34:10.793Z,3.55
2022-09-11T08:36:44.961Z,5.88
2022-09-11T08:39:18.080Z,3.20
2022-09-11T08:42:01.282Z,3.28
2022-09-11T08:44:44.046Z,4.18
2022-09-11T08:47:26.913Z,2.60
2022-09-11T08:50:06.842Z,3.83
2022-09-11T08:52:41.337Z,3.78
2022-09-11T08:55:22.847Z,3.20
2022-09-11T08:58:02.866Z,2.63
2022-09-11T09:00:46.051Z,4.28
2022-09-11T09:03:44.780Z,3.38
2022-09-11T09:06:34.047Z,3.20
2022-09-11T09:09:14.425Z,2.92
2022-09-11T09:11:55.962Z,3.65
2022-09-11T09:14:53.466Z,6.13
2022-09-11T09:17:30.295Z,1.73
2022-09-11T09:20:09.594Z,2.88
2022-09-11T09:22:49.275Z,4.88
2022-09-11T09:25:24.152Z,4.53
2022-09-11T09:28:08.754Z,2.80
2022-09-11T09:30:49.020Z,2.40
2022-09-11T09:33:31.686Z,3.53
2022-09-11T09:36:16.678Z,3.72
2022-09-11T09:38:50.296Z,3.47
2022-09-11T09:41:54.178Z,3.00
2022-09-11T09:44:54.760Z,4.28
2022-09-11T09:47:27.612Z,4.35
2022-09-11T09:50:01.607Z,1.95
2022-09-11T09:52:35.959Z,4.57
2022-09-11T09:55:16.388Z,2.78
2022-09-11T09:57:49.289Z,3.22
2022-09-11T10:02:58.116Z,2.20
2022-09-11T10:05:35.491Z,2.92
2022-09-11T10:08:24.748Z,1.67
2022-09-11T10:10:59.203Z,2.30
2022-09-11T10:13:33.897Z,3.08
2022-09-11T10:16:20.497Z,3.00
2022-09-11T10:18:54.361Z,2.92
2022-09-11T10:21:33.335Z,3.85
2022-09-11T10:24:23.508Z,4.50
2022-09-11T10:26:58.270Z,2.17
2022-09-11T10:29:32.045Z,3.10
2022-09-11T10:32:05.304Z,1.88
2022-09-11T10:34:40.427Z,1.80
2022-09-11T10:37:26.049Z,3.03
2022-09-11T10:40:07.293Z,4.68
2022-09-11T10:42:41.405Z,2.67
2022-09-11T10:45:17.191Z,1.80
2022-09-11T10:47:49.830Z,2.85
2022-09-11T10:50:28.736Z,3.05
2022-09-11T10:53:17.335Z,3.38
2022-09-11T10:56:01.661Z,3.28
2022-09-11T10:58:38.991Z,2.63
2022-09-11T11:01:11.850Z,2.92
2022-09-11T11:06:32.547Z,2.03
2022-09-11T11:09:28.993Z,2.95
2022-09-11T11:12:21.049Z,3.42
2022-09-11T11:15:13.672Z,3.08
2022-09-11T11:17:53.005Z,1.45
2022-09-11T11:20:34.885Z,3.10
2022-09-11T11:23:33.883Z,2.97
2022-09-11T11:26:31.607Z,2.97
2022-09-11T11:29:18.373Z,3.03
2022-09-11T11:32:09.735Z,3.15
2022-09-11T11:35:01.492Z,2.08
2022-09-11T11:37:37.400Z,3.65
2022-09-11T11:40:19.837Z,3.47
2022-09-11T11:42:58.159Z,2.72
2022-09-11T11:45:36.437Z,2.83
2022-09-11T11:48:15.617Z,3.15
2022-09-11T11:50:52.691Z,4.15
2022-09-11T11:53:28.704Z,4.88
2022-09-11T11:56:05.874Z,3.97
2022-09-11T11:58:48.152Z,3.30
2022-09-11T12:01:25.711Z,8.43
2022-09-11T12:04:05.010Z,3.75
2022-09-11T12:06:37.656Z,3.13
2022-09-11T12:09:10.886Z,2.47
2022-09-11T12:11:47.268Z,3.05
2022-09-11T12:14:28.517Z,3.40
2022-09-11T12:17:18.859Z,2.65
2022-09-11T12:20:32.317Z,2.88
2022-09-11T12:23:06.767Z,2.95
2022-09-11T12:25:53.549Z,5.28
2022-09-11T12:28:26.974Z,5.00
2022-09-11T12:31:06.540Z,6.15
2022-09-11T12:33:55.735Z,3.28
2022-09-11T12:36:44.266Z,6.97
2022-09-11T12:39:27.002Z,3.20
2022-09-11T12:42:37.103Z,4.25
2022-09-11T12:45:32.364Z,5.88
2022-09-11T12:48:12.657Z,4.40
2022-09-11T12:50:56.229Z,4.60
2022-09-11T12:53:32.352Z,2.83
2022-09-11T12:56:07.502Z,5.05
2022-09-11T12:58:41.785Z,3.97
2022-09-11T13:01:20.849Z,3.10
2022-09-11T13:03:59.372Z,5.45
2022-09-11T13:06:42.396Z,5.13
2022-09-11T13:09:22.465Z,5.10
2022-09-11T13:11:56.805Z,4.57
2022-09-11T13:14:48.143Z,6.65
2022-09-11T13:17:28.491Z,3.85
2022-09-11T13:20:23.386Z,4.93
2022-09-11T13:23:11.457Z,5.57
2022-09-11T13:25:45.017Z,6.00
2022-09-11T13:28:23.302Z,4.55
2022-09-11T13:31:02.155Z,3.42
2022-09-11T13:33:35.046Z,8.73
2022-09-11T13:38:54.360Z,3.85
2022-09-11T13:41:30.021Z,6.75
2022-09-11T13:44:04.156Z,8.52
2022-09-11T13:46:36.837Z,7.45
2022-09-11T13:49:28.611Z,7.28
2022-09-11T13:52:05.673Z,4.57
2022-09-11T13:54:42.587Z,4.32
2022-09-11T13:57:17.856Z,4.90
2022-09-11T13:59:57.058Z,7.43
2022-09-11T14:02:40.666Z,7.70
2022-09-11T14:05:21.016Z,4.97
2022-09-11T14:08:01.129Z,5.18
2022-09-11T14:10:38.403Z,6.75
2022-09-11T14:13:18.517Z,3.72
2022-09-11T14:15:53.902Z,4.57
2022-09-11T14:18:33.084Z,5.18
2022-09-11T14:21:13.438Z,5.13
2022-09-11T14:23:52.950Z,3.88
2022-09-11T14:26:40.359Z,4.57
2022-09-11T14:29:24.815Z,5.13
2022-09-11T14:32:31.119Z,4.18
2022-09-11T14:35:06.486Z,6.75
2022-09-11T14:37:43.568Z,4.10
2022-09-11T14:40:19.385Z,4.55
2022-09-11T14:42:52.106Z,4.47
2022-09-11T14:45:26.916Z,4.15
2022-09-11T14:48:00.827Z,5.18
2022-09-11T14:50:33.636Z,3.67
2022-09-11T14:55:40.101Z,5.00
2022-09-11T14:58:12.778Z,4.03
2022-09-11T15:00:45.358Z,3.72
2022-09-11T15:03:19.222Z,2.65
2022-09-11T15:05:56.089Z,5.47
2022-09-11T15:08:28.751Z,5.30
2022-09-11T15:11:02.751Z,2.95
2022-09-11T15:13:35.468Z,4.53
2022-09-11T15:18:42.109Z,2.97
2022-09-11T15:21:15.142Z,2.90
2022-09-11T15:23:50.011Z,4.53
2022-09-11T15:26:24.324Z,4.93
2022-09-11T15:28:57.032Z,4.70
2022-09-11T15:34:07.241Z,4.20
2022-09-11T15:36:41.581Z,6.22
2022-09-11T15:39:16.971Z,3.70
2022-09-11T15:41:52.074Z,6.68
2022-09-11T15:44:27.058Z,4.15
2022-09-11T15:47:00.036Z,4.97
2022-09-11T15:49:32.700Z,5.30
2022-09-11T15:52:05.476Z,4.55
2022-09-11T15:57:12.476Z,4.53
2022-09-11T15:59:45.259Z,6.43
2022-09-11T16:02:20.431Z,6.47
2022-09-11T16:04:54.038Z,7.82
2022-09-11T16:07:26.893Z,3.97
2022-09-11T16:09:59.814Z,4.43
2022-09-11T16:12:34.730Z,4.65
2022-09-11T16:15:08.318Z,6.15
2022-09-11T16:17:40.998Z,4.95
2022-09-11T16:20:15.297Z,4.38
2022-09-11T16:22:48.414Z,5.65
2022-09-11T16:25:21.949Z,4.13
2022-09-11T16:27:59.720Z,3.75
2022-09-11T16:30:43.588Z,4.80
2022-09-11T16:33:17.758Z,5.53
2022-09-11T16:35:58.521Z,5.45
2022-09-11T16:38:31.346Z,7.68
2022-09-11T16:43:40.744Z,5.85
2022-09-11T16:46:15.338Z,5.57
2022-09-11T16:48:53.266Z,4.28
2022-09-11T16:51:28.062Z,3.70
2022-09-11T16:54:00.923Z,5.70
2022-09-11T16:56:33.831Z,4.50
2022-09-11T17:01:40.500Z,8.77
2022-09-11T17:06:45.647Z,4.32
2022-09-11T17:09:18.387Z,9.23
2022-09-11T17:11:51.155Z,6.75
2022-09-11T17:16:58.139Z,4.13
2022-09-11T17:19:30.820Z,3.55
2022-09-11T17:22:03.845Z,5.30
2022-09-11T17:24:37.616Z,8.07
2022-09-11T17:27:10.256Z,4.68
2022-09-11T17:29:44.930Z,2.35
2022-09-11T17:32:29.203Z,4.68
2022-09-11T17:35:02.319Z,7.10
2022-09-11T17:40:08.949Z,4.07
2022-09-11T17:42:42.594Z,4.22
2022-09-11T17:45:16.731Z,6.82
2022-09-11T17:47:49.501Z,3.65
2022-09-11T17:50:22.368Z,2.47
2022-09-11T17:55:29.499Z,5.30
2022-09-11T17:58:02.220Z,4.05
2022-09-11T18:00:36.316Z,5.78
2022-09-11T18:03:09.082Z,4.60
2022-09-11T18:05:42.698Z,4.03
2022-09-11T18:08:16.300Z,3.95
2022-09-11T18:10:52.792Z,3.35
2022-09-11T18:13:25.429Z,2.92
2022-09-11T18:15:59.647Z,3.10
2022-09-11T18:18:33.428Z,3.92
2022-09-11T18:21:07.038Z,3.45
2022-09-11T18:23:42.491Z,3.22
2022-09-11T18:26:23.983Z,3.95
2022-09-11T18:29:00.031Z,3.25
2022-09-11T18:31:39.927Z,3.25
2022-09-11T18:34:14.093Z,2.55
2022-09-11T18:36:46.874Z,2.67
2022-09-11T18:39:21.127Z,3.50
2022-09-11T18:41:53.945Z,3.33
2022-09-11T18:44:26.765Z,3.50
2022-09-11T18:47:01.256Z,2.83
2022-09-11T18:49:34.758Z,4.22
2022-09-11T18:52:08.766Z,3.42
2022-09-11T18:54:41.527Z,3.40
2022-09-11T18:57:14.192Z,2.97
2022-09-11T18:59:46.900Z,3.83
2022-09-11T19:02:20.959Z,4.97
2022-09-11T19:04:53.735Z,3.08
2022-09-11T19:07:26.465Z,2.55
2022-09-11T19:10:00.340Z,4.30
2022-09-11T19:12:33.337Z,2.67
2022-09-11T19:15:07.143Z,3.33
2022-09-11T19:17:42.059Z,3.05
2022-09-11T19:20:14.921Z,2.30
2022-09-11T19:22:47.828Z,2.97
2022-09-11T19:27:53.345Z,3.10
2022-09-11T19:30:26.012Z,2.85
2022-09-11T19:33:00.505Z,3.55
2022-09-11T19:35:33.168Z,3.20
2022-09-11T19:38:05.823Z,2.95
2022-09-11T19:40:39.559Z,2.72
2022-09-11T19:43:12.781Z,3.45
2022-09-11T19:45:45.789Z,2.92
2022-09-11T19:50:52.447Z,4.63
2022-09-11T19:53:25.192Z,3.35
2022-09-11T19:56:00.290Z,2.85
2022-09-11T19:58:33.593Z,2.95
2022-09-11T20:01:08.890Z,2.58
2022-09-11T20:03:45.223Z,3.08
2022-09-11T20:06:20.572Z,2.33
2022-09-11T20:09:07.963Z,2.75
2022-09-11T20:11:47.183Z,2.08
2022-09-11T20:14:20.179Z,2.42
2022-09-11T20:19:27.046Z,2.63
2022-09-11T20:22:00.607Z,3.15
2022-09-11T20:24:33.622Z,2.65
2022-09-11T20:27:06.654Z,2.85
2022-09-11T20:32:13.155Z,2.70
2022-09-11T20:34:47.151Z,2.08
2022-09-11T20:37:19.875Z,2.67
2022-09-11T20:39:52.789Z,2.63
2022-09-11T20:45:00.463Z,2.80
2022-09-11T20:47:33.357Z,3.55
2022-09-11T20:50:09.369Z,1.98
2022-09-11T20:52:43.970Z,3.13
2022-09-11T20:55:16.783Z,2.00
2022-09-11T20:57:49.437Z,2.60
2022-09-11T21:00:22.230Z,2.65
2022-09-11T21:02:55.004Z,3.03
2022-09-11T21:05:28.976Z,2.75
2022-09-11T21:08:01.745Z,2.22
2022-09-11T21:10:37.193Z,5.70
2022-09-11T21:13:11.612Z,2.70
2022-09-11T21:15:44.943Z,4.93
2022-09-11T21:18:17.946Z,3.13
2022-09-11T21:23:28.391Z,2.95
2022-09-11T21:26:01.110Z,2.67
2022-09-11T21:28:33.791Z,2.85
2022-09-11T21:31:08.185Z,2.70
2022-09-11T21:33:41.267Z,2.13
2022-09-11T21:36:15.681Z,3.03
2022-09-11T21:38:48.640Z,2.60
2022-09-11T21:43:54.002Z,2.50
2022-09-11T21:46:26.789Z,2.30
2022-09-11T21:48:59.905Z,2.38
2022-09-11T21:51:34.085Z,2.60
2022-09-11T21:54:06.951Z,2.40
2022-09-11T21:56:39.647Z,3.97
2022-09-11T21:59:12.268Z,2.40
2022-09-11T22:01:45.020Z,3.33
2022-09-11T22:04:17.682Z,2.80
2022-09-11T22:06:51.993Z,2.33
2022-09-11T22:09:24.686Z,3.72
2022-09-11T22:11:59.850Z,4.93
2022-09-11T22:14:32.914Z,2.97
2022-09-11T22:17:05.888Z,2.55
2022-09-11T22:22:13.186Z,2.35
2022-09-11T22:24:45.976Z,3.25
2022-09-11T22:27:18.813Z,2.55
2022-09-11T22:29:54.155Z,2.67
2022-09-11T22:32:27.121Z,2.55
2022-09-11T22:37:33.635Z,2.90
2022-09-11T22:40:07.904Z,2.58
2022-09-11T22:42:40.643Z,2.38
2022-09-11T22:45:13.306Z,3.05
2022-09-11T22:47:46.061Z,1.98
2022-09-11T22:50:19.333Z,3.00
2022-09-11T22:52:53.593Z,2.60
2022-09-11T22:55:26.253Z,2.35
2022-09-11T22:57:58.883Z,3.00
2022-09-11T23:00:31.738Z,2.35
2022-09-11T23:03:04.748Z,2.97
